Pagrindinis puslapis
METAR-TAF:

METAR-TAF

Oro uostai :

Heliport

Værøy, Norvegija

platuma: 67-39-16N, ilguma: 12-43-37E, Aukštis: 5 m

Dabartinis oras

Ataskaita buvo paskelbta 13 valandos ir 59 minutes, ne 14:50 UTC
Vėjas 18 kt iš Rytų/Pietryčių
Temperatūra 2°C
Drėgmė 87%
Slėgis 977 hPa
Matomumas 10 km arba daugiau
Išsisklaidę debesys ne aukštis 1000 ft
Su prošvaistėmis ne aukštis 2100 ft
lietus

METAR: ENVR 291450Z 11018KT 9999 -RA SCT010 BKN021 02/00 Q0977

Laikas: 05:49 (04:49 UTC)


TAF: trūkstamas

Orai ataskaitas ir orų prognozės (METAR, TAF).

turimą stotys yra geltonos ir raudonos taškus žemėlapyje.

Perkelti pele per norėdami pamatyti stoties vardą.

Tada spustelėkite, norėdami matyti oro stebėjimo ir prognozės.

Norėdami pakeisti žemėlapį: spustelėkite ant žalios mygtukų su juodo kryžiaus žemyn,; žalią mygtuką su brūkšneliu, jei norite nutolinti; arba žalių rodyklių gretimoms žemėlapius.


METAR-TAF: